Time;durP1;ratioP1;P1;durP2;ratioP2;P2;SDS_P1;SDS_P2;PMS_P1;PMS_P2;Temp;Humidity;BMP_temperature;BMP_pressure;BME280_temperature;BME280_humidity;BME280_pressure;Samples;Min_cycle;Max_cycle;Signal;HPM_P1;HPM_P2
2022/04/27 00:00:37;;;;;;;33.00;18.10;;;;;;;3.93;85.13;98654.54;105886;1280;23159;-80
2022/04/27 00:03:19;;;;;;;31.90;16.90;;;;;;;3.94;85.25;98653.31;105939;1281;22733;-80
2022/04/27 00:05:45;;;;;;;32.60;16.80;;;;;;;3.94;85.31;98651.28;105932;1278;138100;-80
2022/04/27 00:08:26;;;;;;;31.90;17.40;;;;;;;3.93;85.21;98649.85;106054;1277;22559;-80
2022/04/27 00:10:52;;;;;;;39.10;19.50;;;;;;;3.91;85.15;98650.14;106009;1278;137585;-80
2022/04/27 00:13:18;;;;;;;37.00;19.30;;;;;;;3.91;85.53;98652.92;105987;1278;22538;-79
2022/04/27 00:15:44;;;;;;;34.50;17.20;;;;;;;3.95;85.63;98658.21;105900;1281;138518;-79
2022/04/27 00:18:25;;;;;;;33.40;17.20;;;;;;;3.98;85.66;98653.73;105957;1281;22551;-79
2022/04/27 00:20:53;;;;;;;32.70;16.90;;;;;;;4.04;85.96;98652.95;105949;1281;25328;-79
2022/04/27 00:23:34;;;;;;;30.20;15.70;;;;;;;4.09;85.80;98653.73;105968;1279;137791;-79
2022/04/27 00:26:01;;;;;;;31.30;17.00;;;;;;;4.13;85.75;98657.27;106113;1278;22542;-79
2022/04/27 00:28:29;;;;;;;31.80;16.50;;;;;;;4.16;85.56;98658.75;105821;1278;138449;-79
2022/04/27 00:30:55;;;;;;;29.40;16.40;;;;;;;4.17;85.51;98660.57;106092;1277;25053;-79
2022/04/27 00:33:22;;;;;;;32.00;15.50;;;;;;;4.18;85.68;98659.91;105969;1277;138500;-79
2022/04/27 00:35:48;;;;;;;30.60;15.40;;;;;;;4.22;85.77;98662.17;105934;1280;25471;-79
2022/04/27 00:38:16;;;;;;;29.80;17.20;;;;;;;4.20;85.58;98661.95;105809;1280;22549;-79
2022/04/27 00:40:45;;;;;;;33.10;16.10;;;;;;;4.18;85.21;98662.95;105687;1280;137804;-79
2022/04/27 00:43:18;;;;;;;;;;;;;;;4.16;85.21;98663.64;105827;1280;26608;-79
2022/04/27 00:45:44;;;;;;;25.20;13.80;;;;;;;4.12;85.27;98666.02;105644;1281;124970;-79
2022/04/27 00:48:11;;;;;;;25.20;12.50;;;;;;;4.10;85.56;98665.06;105823;1277;22646;-79
2022/04/27 00:50:37;;;;;;;26.00;13.30;;;;;;;4.11;85.92;98663.98;105713;1278;22566;-81
2022/04/27 00:53:04;;;;;;;22.30;12.60;;;;;;;4.15;86.12;98663.74;105787;1278;137734;-79
2022/04/27 00:55:30;;;;;;;24.60;12.90;;;;;;;4.18;86.13;98662.20;105855;1278;25394;-79
2022/04/27 00:57:59;;;;;;;22.30;12.10;;;;;;;4.23;85.99;98666.08;105644;1278;138395;-79
2022/04/27 01:00:26;;;;;;;22.80;12.30;;;;;;;4.29;86.25;98661.39;105873;1277;25388;-79
2022/04/27 01:02:53;;;;;;;20.00;11.80;;;;;;;4.34;86.45;98663.23;106023;1277;22558;-79
2022/04/27 01:05:21;;;;;;;21.20;11.60;;;;;;;4.38;86.42;98661.52;105845;1276;137808;-79
2022/04/27 01:08:02;;;;;;;27.40;13.80;;;;;;;4.41;86.34;98664.02;105819;1280;22599;-81
2022/04/27 01:10:28;;;;;;;20.30;11.30;;;;;;;4.44;86.57;98663.98;105756;1280;139104;-79
2022/04/27 01:12:59;;;;;;;18.70;11.30;;;;;;;4.49;86.53;98664.17;105753;1280;24285;-79
2022/04/27 01:15:36;;;;;;;22.30;11.40;;;;;;;4.53;86.36;98662.66;105779;1280;138470;-79
2022/04/27 01:18:03;;;;;;;23.40;12.20;;;;;;;4.55;86.36;98669.55;106204;1277;23150;-79
2022/04/27 01:20:35;;;;;;;30.30;15.10;;;;;;;4.52;86.09;98671.33;105913;1278;22580;-78
2022/04/27 01:23:02;;;;;;;24.90;13.60;;;;;;;4.46;85.65;98673.58;105926;1278;137645;-79
2022/04/27 01:25:49;;;;;;;26.50;14.10;;;;;;;4.42;85.65;98671.45;106046;1277;24618;-80
2022/04/27 01:28:22;;;;;;;23.00;13.70;;;;;;;4.43;85.86;98670.24;106011;1277;138152;-79
2022/04/27 01:30:59;;;;;;;23.10;12.90;;;;;;;4.44;85.68;98667.89;106001;1280;22777;-79
2022/04/27 01:33:26;;;;;;;26.20;13.60;;;;;;;4.46;85.96;98671.59;105743;1280;138007;-79
2022/04/27 01:35:54;;;;;;;25.30;14.30;;;;;;;4.45;85.52;98675.69;105828;1280;22575;-79
2022/04/27 01:38:21;;;;;;;53.50;17.50;;;;;;;4.40;85.25;98677.21;105941;1277;24437;-79
2022/04/27 01:40:52;;;;;;;30.90;14.20;;;;;;;4.35;85.15;98677.89;105880;1277;138380;-79
2022/04/27 01:43:34;;;;;;;29.50;14.90;;;;;;;4.31;85.07;98676.08;105849;1277;22632;-79
2022/04/27 01:46:01;;;;;;;27.10;14.20;;;;;;;4.29;85.16;98676.85;105921;1277;137873;-79
2022/04/27 01:48:28;;;;;;;26.80;14.10;;;;;;;4.26;85.30;98675.60;106045;1277;22550;-79
2022/04/27 01:50:56;;;;;;;26.10;13.30;;;;;;;4.24;85.51;98674.66;105782;1278;22720;-79
2022/04/27 01:56:03;;;;;;;21.80;12.10;;;;;;;4.22;85.93;98678.67;106037;1277;24276;-79
2022/04/27 01:58:34;;;;;;;22.70;12.70;;;;;;;4.23;86.23;98676.73;106079;1277;138136;-81
2022/04/27 02:01:01;;;;;;;21.50;12.80;;;;;;;4.25;86.35;98676.89;106142;1277;22816;-79
2022/04/27 02:03:29;;;;;;;27.30;13.00;;;;;;;4.24;86.30;98679.07;105781;1280;137904;-81
2022/04/27 02:05:57;;;;;;;25.50;14.10;;;;;;;4.23;86.19;98678.30;105887;1277;22563;-79
2022/04/27 02:08:24;;;;;;;23.00;13.20;;;;;;;4.23;86.21;98675.45;105934;1277;25339;-79
2022/04/27 02:10:51;;;;;;;25.40;12.90;;;;;;;4.25;86.66;98677.02;105848;1277;138362;-79
2022/04/27 02:13:33;;;;;;;29.40;14.10;;;;;;;4.31;87.29;98672.84;105945;1277;26727;-78
2022/04/27 02:16:04;;;;;;;26.70;14.00;;;;;;;4.38;87.65;98674.71;105906;1277;138235;-78
2022/04/27 02:18:35;;;;;;;29.90;13.80;;;;;;;4.46;87.80;98674.45;105882;1277;24419;-79
2022/04/27 02:21:03;;;;;;;26.60;14.80;;;;;;;4.54;87.72;98672.13;106033;1280;26517;-79
2022/04/27 02:23:44;;;;;;;28.10;13.30;;;;;;;4.62;87.46;98675.85;105806;1279;138031;-79
2022/04/27 02:26:11;;;;;;;25.70;13.50;;;;;;;4.67;87.58;98675.88;105780;1281;22826;-81
2022/04/27 02:28:42;;;;;;;28.90;14.70;;;;;;;4.71;87.42;98677.84;105934;1280;138070;-79
2022/04/27 02:31:08;;;;;;;29.00;15.30;;;;;;;4.74;87.39;98678.27;105992;1278;25356;-79
2022/04/27 02:33:35;;;;;;;29.30;14.20;;;;;;;4.78;87.33;98675.21;105889;1277;138747;-79
2022/04/27 02:36:02;;;;;;;28.90;15.10;;;;;;;4.82;87.28;98674.22;106062;1277;23923;-79
2022/04/27 02:38:29;;;;;;;30.60;15.40;;;;;;;4.87;87.43;98671.67;106145;1277;22602;-80
2022/04/27 02:40:56;;;;;;;28.50;14.80;;;;;;;4.92;87.33;98671.89;105995;1277;137955;-80
2022/04/27 02:43:23;;;;;;;29.50;15.40;;;;;;;4.95;87.42;98672.10;106005;1277;22576;-78
2022/04/27 02:45:50;;;;;;;29.50;15.70;;;;;;;5.01;87.23;98666.77;105781;1280;139302;-79
2022/04/27 02:48:17;;;;;;;29.60;15.80;;;;;;;5.06;87.17;98668.39;105565;1283;22628;-79
2022/04/27 02:53:24;;;;;;;28.20;16.30;;;;;;;5.14;87.24;98667.13;105612;1278;137626;-80
2022/04/27 02:55:51;;;;;;;30.30;16.40;;;;;;;5.16;86.78;98668.87;105868;1277;22688;-81
2022/04/27 02:58:19;;;;;;;28.80;15.50;;;;;;;5.16;86.45;98672.86;105957;1277;138433;-80
2022/04/27 03:01:00;;;;;;;27.70;14.00;;;;;;;5.18;86.34;98674.95;105755;1279;25350;-80
2022/04/27 03:03:26;;;;;;;29.40;16.10;;;;;;;5.20;86.51;98674.49;105725;1280;139045;-79
2022/04/27 03:05:54;;;;;;;30.20;15.70;;;;;;;5.21;86.33;98676.90;105729;1277;25352;-79
2022/04/27 03:08:20;;;;;;;27.60;15.40;;;;;;;5.21;86.23;98683.13;105862;1277;22571;-79
2022/04/27 03:10:50;;;;;;;29.90;16.00;;;;;;;5.20;86.19;98680.14;106116;1277;138133;-79
2022/04/27 03:13:32;;;;;;;27.70;14.60;;;;;;;5.21;85.97;98688.70;105988;1277;22553;-78
2022/04/27 03:16:08;;;;;;;27.10;14.90;;;;;;;5.21;85.84;98691.56;105783;1280;138941;-79
2022/04/27 03:18:35;;;;;;;29.70;15.40;;;;;;;5.21;85.77;98692.15;105917;1277;25264;-79
2022/04/27 03:21:01;;;;;;;28.40;15.70;;;;;;;5.19;85.62;98696.70;105916;1280;25339;-79
2022/04/27 03:23:28;;;;;;;26.40;15.10;;;;;;;5.17;85.75;98699.31;105719;1278;139019;-78
2022/04/27 03:25:55;;;;;;;27.30;14.90;;;;;;;5.14;85.57;98700.89;105928;1277;25354;-79
2022/04/27 03:28:22;;;;;;;28.70;15.80;;;;;;;5.12;85.30;98701.47;105686;1280;138201;-79
2022/04/27 03:30:49;;;;;;;31.90;15.50;;;;;;;5.06;84.91;98701.17;105916;1277;22605;-79
2022/04/27 03:33:50;;;;;;;28.00;15.90;;;;;;;4.98;84.91;98700.81;105875;1277;138037;-79
2022/04/27 03:36:17;;;;;;;30.20;16.10;;;;;;;4.91;84.86;98701.98;106005;1277;22566;-79
2022/04/27 03:38:48;;;;;;;35.40;17.40;;;;;;;4.88;85.39;98706.96;105931;1277;23089;-79
2022/04/27 03:41:19;;;;;;;31.80;15.70;;;;;;;4.89;85.61;98706.67;105917;1277;138350;-79
2022/04/27 03:43:47;;;;;;;27.60;16.40;;;;;;;4.92;85.91;98710.29;105884;1277;24301;-79
2022/04/27 03:46:14;;;;;;;31.60;14.80;;;;;;;4.95;85.87;98707.77;105977;1277;138064;-79
2022/04/27 03:48:42;;;;;;;27.20;15.10;;;;;;;4.97;85.66;98707.02;105970;1277;22573;-79
2022/04/27 03:51:09;;;;;;;33.50;16.50;;;;;;;5.00;85.78;98712.52;105704;1277;22540;-79
2022/04/27 03:53:39;;;;;;;32.20;16.10;;;;;;;5.03;85.92;98713.07;106079;1277;137326;-78
2022/04/27 03:56:06;;;;;;;30.80;16.40;;;;;;;5.05;85.86;98710.05;105980;1277;22531;-79
2022/04/27 03:58:33;;;;;;;31.40;14.40;;;;;;;5.08;86.00;98712.51;105697;1277;138136;-79
2022/04/27 04:00:59;;;;;;;27.10;14.90;;;;;;;5.12;86.03;98713.59;105785;1280;25322;-79
2022/04/27 04:03:40;;;;;;;28.60;15.60;;;;;;;5.17;85.93;98716.42;105636;1280;138027;-78
2022/04/27 04:06:07;;;;;;;27.80;17.00;;;;;;;5.21;86.12;98718.27;105820;1280;22542;-79
2022/04/27 04:08:41;;;;;;;29.50;16.10;;;;;;;5.23;85.72;98720.64;105827;1280;22628;-79
2022/04/27 04:11:08;;;;;;;31.30;16.20;;;;;;;5.24;85.65;98722.18;106099;1277;138818;-78
2022/04/27 04:13:54;;;;;;;37.20;17.10;;;;;;;5.24;85.69;98722.84;105785;1277;22712;-79
2022/04/27 04:16:33;;;;;;;;;;;;;;;5.26;85.67;98729.59;105873;1277;137715;-79
2022/04/27 04:19:13;;;;;;;35.20;16.60;;;;;;;5.26;85.59;98733.73;105745;1278;22586;-79
2022/04/27 04:21:54;;;;;;;35.20;16.00;;;;;;;5.25;85.56;98732.58;105589;1279;137641;-79
2022/04/27 04:24:35;;;;;;;31.70;15.70;;;;;;;5.27;85.44;98735.98;105804;1280;25291;-79
2022/04/27 04:29:42;;;;;;;30.50;15.30;;;;;;;5.31;85.34;98741.73;105862;1279;137697;-79
2022/04/27 04:32:09;;;;;;;29.70;14.90;;;;;;;5.35;85.39;98739.90;106007;1277;30054;-79
2022/04/27 04:34:50;;;;;;;32.20;16.10;;;;;;;5.39;85.37;98743.52;105982;1277;137849;-78
2022/04/27 04:37:17;;;;;;;40.40;16.30;;;;;;;5.40;84.93;98744.15;105913;1277;22562;-78
2022/04/27 04:39:43;;;;;;;30.30;15.30;;;;;;;5.42;84.96;98747.31;105886;1277;138774;-79
2022/04/27 04:42:10;;;;;;;29.80;15.40;;;;;;;5.45;84.88;98750.66;105899;1277;25524;-79
2022/04/27 04:44:39;;;;;;;28.10;15.10;;;;;;;5.49;85.02;98753.48;105725;1278;25345;-79
2022/04/27 04:47:19;;;;;;;31.80;15.50;;;;;;;5.55;85.17;98755.70;105643;1278;137710;-79
2022/04/27 04:50:12;;;;;;;36.00;16.70;;;;;;;5.59;85.28;98757.61;105598;1277;25323;-81
2022/04/27 04:52:46;;;;;;;35.10;17.80;;;;;;;5.61;85.15;98760.39;105644;1278;138055;-79
2022/04/27 04:55:27;;;;;;;33.80;16.20;;;;;;;5.66;85.09;98761.20;105984;1277;25305;-79
2022/04/27 04:58:30;;;;;;;27.20;15.00;;;;;;;5.74;85.25;98763.28;105800;1280;138272;-79
2022/04/27 05:01:11;;;;;;;29.30;15.50;;;;;;;5.80;85.26;98765.66;105975;1277;24287;-79
2022/04/27 05:03:51;;;;;;;32.30;15.50;;;;;;;5.87;85.07;98767.25;105706;1280;138077;-80
2022/04/27 05:06:30;;;;;;;30.40;15.60;;;;;;;5.92;84.93;98767.27;105658;1280;24280;-79
2022/04/27 05:09:23;;;;;;;29.00;17.10;;;;;;;5.95;84.69;98772.96;105588;1277;138839;-79
2022/04/27 05:12:04;;;;;;;26.10;15.20;;;;;;;6.00;84.58;98775.73;105866;1277;22713;-79
2022/04/27 05:14:51;;;;;;;30.30;16.30;;;;;;;6.06;84.84;98781.84;105987;1277;22565;-79
2022/04/27 05:17:39;;;;;;;29.80;16.20;;;;;;;6.12;84.79;98783.34;105888;1277;137560;-79
2022/04/27 05:20:28;;;;;;;31.70;17.20;;;;;;;6.17;84.76;98781.64;105711;1277;22544;-79
2022/04/27 05:23:16;;;;;;;35.50;17.60;;;;;;;6.21;85.05;98782.09;105839;1277;138110;-79
2022/04/27 05:25:56;;;;;;;29.80;16.70;;;;;;;6.30;85.15;98783.75;105898;1277;22578;-78
2022/04/27 05:34:26;;;;;;;30.40;16.00;;;;;;;6.56;85.40;98789.88;105942;1277;137680;-78
2022/04/27 05:36:58;;;;;;;31.20;16.40;;;;;;;6.62;85.33;98790.57;105855;1277;22580;-79
2022/04/27 05:39:39;;;;;;;31.70;17.70;;;;;;;6.71;85.31;98795.38;105766;1277;139076;-79
2022/04/27 05:42:44;;;;;;;30.10;15.90;;;;;;;6.83;85.12;98798.69;105825;1280;24392;-79
2022/04/27 05:45:33;;;;;;;31.10;17.10;;;;;;;6.94;85.02;98797.52;105709;1280;138209;-79
2022/04/27 05:48:16;;;;;;;33.10;17.60;;;;;;;7.04;84.90;98808.77;105938;1280;24218;-79
2022/04/27 05:50:57;;;;;;;31.40;16.80;;;;;;;7.14;84.81;98811.08;105812;1280;26520;-79
2022/04/27 05:53:46;;;;;;;30.90;16.90;;;;;;;7.24;84.66;98814.95;105566;1277;138211;-79
2022/04/27 05:56:27;;;;;;;28.50;15.20;;;;;;;7.33;84.66;98817.30;106064;1277;22596;-79
2022/04/27 05:59:10;;;;;;;32.40;16.50;;;;;;;7.42;84.60;98814.02;105620;1278;137926;-79
2022/04/27 06:02:05;;;;;;;30.00;17.20;;;;;;;7.54;84.43;98815.08;105668;1278;22563;-79
2022/04/27 06:04:32;;;;;;;38.10;18.10;;;;;;;7.61;84.18;98811.73;105469;1280;138261;-79
2022/04/27 06:06:58;;;;;;;31.90;17.60;;;;;;;7.70;84.03;98816.98;105783;1280;25391;-79
2022/04/27 06:09:25;;;;;;;32.40;17.10;;;;;;;7.76;83.47;98817.95;105755;1280;138642;-79
2022/04/27 06:12:07;;;;;;;28.50;16.70;;;;;;;7.84;83.96;98818.41;105818;1277;22533;-78
2022/04/27 06:14:42;;;;;;;29.90;17.00;;;;;;;7.90;83.52;98823.13;105872;1277;22638;-78
2022/04/27 06:17:22;;;;;;;32.10;17.00;;;;;;;7.94;83.39;98822.02;105781;1277;137957;-78
2022/04/27 06:19:48;;;;;;;33.60;18.50;;;;;;;7.99;83.43;98827.65;105839;1277;25397;-78
2022/04/27 06:22:15;;;;;;;33.40;16.80;;;;;;;8.03;83.40;98822.00;105804;1277;138110;-78
2022/04/27 06:24:56;;;;;;;29.10;17.00;;;;;;;8.11;83.18;98824.58;105922;1277;25494;-78
2022/04/27 06:27:52;;;;;;;29.10;17.30;;;;;;;8.19;83.09;98826.21;105735;1278;138901;-79
2022/04/27 06:30:19;;;;;;;29.80;17.20;;;;;;;8.27;82.86;98831.25;105777;1278;22612;-79
2022/04/27 06:32:46;;;;;;;30.40;17.10;;;;;;;8.36;82.98;98835.71;105895;1277;24276;-79
2022/04/27 06:35:13;;;;;;;25.30;15.50;;;;;;;8.45;82.48;98833.27;105806;1277;137969;-79
2022/04/27 06:37:40;;;;;;;26.00;16.40;;;;;;;8.51;82.05;98832.13;105778;1278;24331;-79
2022/04/27 06:40:08;;;;;;;29.60;16.20;;;;;;;8.58;82.14;98828.52;105950;1277;138916;-80
2022/04/27 06:42:36;;;;;;;27.00;15.70;;;;;;;8.64;81.40;98831.34;105973;1277;22608;-79
2022/04/27 06:45:16;;;;;;;24.90;14.90;;;;;;;8.74;81.20;98832.95;105787;1280;30478;-80
2022/04/27 06:47:59;;;;;;;25.00;15.00;;;;;;;8.83;80.90;98838.48;105753;1280;138110;-79
2022/04/27 06:50:40;;;;;;;26.80;15.90;;;;;;;8.89;80.31;98839.69;106765;1279;22573;-79
2022/04/27 06:53:34;;;;;;;28.50;15.90;;;;;;;8.96;79.98;98840.29;106073;1279;138307;-83
2022/04/27 06:56:28;;;;;;;27.60;15.40;;;;;;;9.01;79.83;98842.73;106329;1279;24298;-79
2022/04/27 06:59:12;;;;;;;21.20;13.80;;;;;;;9.06;79.61;98844.33;106081;1280;138063;-78
2022/04/27 07:01:39;;;;;;;23.50;14.80;;;;;;;9.09;78.93;98844.87;105935;1280;22692;-77
2022/04/27 07:04:09;;;;;;;32.60;16.40;;;;;;;9.15;78.97;98848.40;106025;1277;138648;-77
2022/04/27 07:06:50;;;;;;;27.80;16.00;;;;;;;9.24;79.11;98846.23;105927;1277;22582;-83
2022/04/27 07:09:16;;;;;;;24.30;14.20;;;;;;;9.34;78.89;98844.44;106058;1278;24360;-81
2022/04/27 07:11:42;;;;;;;25.50;15.70;;;;;;;9.43;78.47;98843.02;106752;1277;138021;-81
2022/04/27 07:14:10;;;;;;;26.00;14.60;;;;;;;9.51;78.03;98845.15;106476;1276;22576;-81
2022/04/27 07:16:36;;;;;;;21.70;14.10;;;;;;;9.58;78.03;98849.15;106152;1280;137795;-81
2022/04/27 07:19:02;;;;;;;25.70;15.50;;;;;;;9.65;77.68;98852.83;106565;1280;22563;-81
2022/04/27 07:21:28;;;;;;;19.90;12.90;;;;;;;9.75;77.70;98854.95;106433;1280;22570;-81
2022/04/27 07:23:56;;;;;;;24.10;14.80;;;;;;;9.84;77.43;98854.83;106584;1277;139649;-81
2022/04/27 07:26:23;;;;;;;22.40;14.50;;;;;;;9.95;76.90;98855.93;107024;1277;23234;-81
2022/04/27 07:28:49;;;;;;;23.50;14.50;;;;;;;10.05;76.61;98854.52;106700;1276;137960;-82
2022/04/27 07:31:15;;;;;;;22.60;13.90;;;;;;;10.16;75.99;98856.48;106574;1277;22868;-82
2022/04/27 07:33:41;;;;;;;23.80;15.30;;;;;;;10.23;75.85;98861.80;106468;1277;138500;-82
2022/04/27 07:36:07;;;;;;;25.90;15.40;;;;;;;10.34;75.93;98862.08;106513;1277;22570;-81
2022/04/27 07:38:34;;;;;;;24.30;15.40;;;;;;;10.46;75.54;98866.54;106794;1277;22926;-82
2022/04/27 07:41:00;;;;;;;24.00;15.50;;;;;;;10.60;74.90;98867.95;106272;1277;137957;-86
2022/04/27 07:43:49;;;;;;;22.80;13.90;;;;;;;10.77;74.20;98868.70;106572;1280;25575;-94
2022/04/27 07:46:18;;;;;;;21.00;14.00;;;;;;;10.91;74.05;98873.70;106211;1277;138563;-83
2022/04/27 07:48:44;;;;;;;26.30;15.90;;;;;;;11.05;74.23;98867.15;106260;1277;25345;-81
2022/04/27 07:51:10;;;;;;;25.30;15.50;;;;;;;11.16;73.09;98868.98;106890;1277;24390;-80
2022/04/27 07:53:51;;;;;;;24.10;15.20;;;;;;;11.31;73.33;98868.42;106304;1277;137648;-81
2022/04/27 07:56:17;;;;;;;26.10;15.40;;;;;;;11.52;73.45;98869.03;106558;1278;22569;-79
2022/04/27 07:58:43;;;;;;;23.60;15.00;;;;;;;11.73;72.83;98867.51;106402;1278;138029;-80
2022/04/27 08:01:09;;;;;;;24.20;15.30;;;;;;;11.93;72.56;98871.30;106154;1278;22563;-79
2022/04/27 08:03:50;;;;;;;22.20;15.00;;;;;;;12.03;71.10;98870.08;105921;1278;138523;-79
2022/04/27 08:06:31;;;;;;;19.00;13.80;;;;;;;12.10;70.30;98873.64;105593;1277;244622;-79
2022/04/27 08:08:57;;;;;;;20.60;14.00;;;;;;;12.13;70.13;98874.86;105954;1277;22579;-79
2022/04/27 08:11:23;;;;;;;22.90;15.80;;;;;;;12.20;69.89;98874.65;105961;1277;137932;-80
2022/04/27 08:14:04;;;;;;;21.80;15.80;;;;;;;12.33;70.13;98880.67;105968;1278;22551;-80
2022/04/27 08:16:30;;;;;;;22.30;15.70;;;;;;;12.46;69.61;98880.89;106190;1276;139808;-80
2022/04/27 08:18:56;;;;;;;28.10;15.90;;;;;;;12.59;68.82;98883.46;105951;1278;25486;-80
2022/04/27 08:21:27;;;;;;;23.30;15.10;;;;;;;12.67;68.48;98884.41;105824;1278;22714;-80
2022/04/27 08:23:54;;;;;;;22.20;15.30;;;;;;;12.73;68.39;98883.54;105811;1277;137899;-80
2022/04/27 08:26:20;;;;;;;22.20;15.20;;;;;;;12.80;68.42;98886.27;106060;1277;22551;-80
2022/04/27 08:28:47;;;;;;;24.90;15.00;;;;;;;12.84;67.60;98885.23;105942;1277;138058;-79
2022/04/27 08:31:16;;;;;;;23.40;15.00;;;;;;;12.94;67.32;98884.20;106094;1277;22996;-79
2022/04/27 08:33:42;;;;;;;20.20;13.50;;;;;;;13.11;67.52;98887.71;106069;1277;138649;-80
2022/04/27 08:36:09;;;;;;;22.80;15.60;;;;;;;13.23;66.98;98883.56;106078;1277;23955;-79
2022/04/27 08:38:37;;;;;;;22.80;15.60;;;;;;;13.35;66.55;98883.43;106073;1277;25369;-79
2022/04/27 08:41:03;;;;;;;23.20;14.00;;;;;;;13.46;65.70;98887.15;105880;1277;137834;-80
2022/04/27 08:43:30;;;;;;;23.10;15.60;;;;;;;13.53;65.33;98887.39;105971;1277;25271;-79
2022/04/27 08:46:01;;;;;;;20.00;14.60;;;;;;;13.55;64.60;98891.38;105907;1277;138776;-80
2022/04/27 08:48:28;;;;;;;22.60;14.20;;;;;;;13.65;64.44;98893.45;106003;1277;22803;-80
2022/04/27 08:50:55;;;;;;;19.40;13.30;;;;;;;13.79;64.18;98891.67;105921;1278;22563;-79
2022/04/27 08:53:35;;;;;;;19.10;14.10;;;;;;;13.93;63.27;98890.79;106063;1277;137753;-79
2022/04/27 08:56:01;;;;;;;19.90;14.50;;;;;;;13.89;62.43;98889.98;105938;1278;23618;-80
2022/04/27 08:58:28;;;;;;;17.40;12.50;;;;;;;13.84;62.47;98889.86;105869;1280;137905;-80
2022/04/27 09:00:54;;;;;;;21.80;14.40;;;;;;;13.82;62.83;98890.17;105999;1280;22623;-79
2022/04/27 09:03:22;;;;;;;21.30;14.50;;;;;;;13.80;62.00;98884.94;106000;1280;24321;-80
2022/04/27 09:05:50;;;;;;;18.90;12.80;;;;;;;13.89;62.28;98886.80;106060;1277;138050;-79
2022/04/27 09:08:17;;;;;;;22.20;14.50;;;;;;;14.03;61.59;98886.56;106004;1277;22573;-80
2022/04/27 09:10:43;;;;;;;19.40;13.10;;;;;;;14.11;61.33;98888.14;105922;1277;137829;-80
2022/04/27 09:13:10;;;;;;;22.10;13.70;;;;;;;14.24;61.24;98886.79;105956;1277;24419;-80
2022/04/27 09:15:36;;;;;;;19.20;14.00;;;;;;;14.44;60.97;98884.41;106121;1274;138259;-80
2022/04/27 09:20:49;;;;;;;18.30;13.30;;;;;;;14.83;60.92;98878.63;106049;1277;24555;-80
2022/04/27 09:23:26;;;;;;;22.10;14.20;;;;;;;15.00;60.13;98879.02;105845;1280;137924;-80
2022/04/27 09:25:55;;;;;;;20.70;12.90;;;;;;;15.02;59.33;98877.17;105975;1279;24836;-80
2022/04/27 09:28:23;;;;;;;16.10;11.90;;;;;;;14.99;59.59;98884.89;106171;1278;137813;-81
2022/04/27 09:30:50;;;;;;;15.50;11.50;;;;;;;14.86;57.66;98880.46;106163;1278;22648;-79
2022/04/27 09:33:32;;;;;;;14.80;12.00;;;;;;;14.69;57.24;98882.23;105965;1278;24291;-79
2022/04/27 09:35:59;;;;;;;17.00;12.60;;;;;;;14.53;57.76;98882.58;105793;1278;137794;-79
2022/04/27 09:38:26;;;;;;;17.80;12.80;;;;;;;14.45;57.79;98880.31;105921;1277;23965;-79
2022/04/27 09:40:57;;;;;;;16.30;12.20;;;;;;;14.41;58.00;98880.98;105877;1277;137768;-80
2022/04/27 09:43:47;;;;;;;19.30;12.80;;;;;;;14.47;58.24;98879.34;105980;1277;22770;-79
2022/04/27 09:46:28;;;;;;;15.90;11.20;;;;;;;14.68;58.19;98877.69;105861;1277;138029;-79
2022/04/27 09:49:11;;;;;;;13.30;10.00;;;;;;;14.87;58.02;98875.05;105822;1280;22562;-80
2022/04/27 09:51:54;;;;;;;18.20;13.40;;;;;;;15.06;56.07;98870.40;105811;1280;138065;-79
2022/04/27 09:54:36;;;;;;;18.40;11.90;;;;;;;15.19;56.64;98864.77;105818;1279;22572;-80
2022/04/27 09:57:19;;;;;;;16.70;12.90;;;;;;;15.33;56.37;98862.92;106087;1277;24328;-79
2022/04/27 09:59:47;;;;;;;18.70;13.60;;;;;;;15.42;57.35;98865.13;106147;1277;137766;-79
2022/04/27 10:02:24;;;;;;;22.00;15.30;;;;;;;15.62;57.10;98862.68;107256;1277;25433;-80
2022/04/27 10:04:51;;;;;;;20.30;14.50;;;;;;;15.71;55.75;98861.63;106707;1277;139669;-79
2022/04/27 10:07:21;;;;;;;16.20;12.50;;;;;;;15.64;55.21;98866.27;107053;1278;22579;-79
2022/04/27 10:09:49;;;;;;;16.50;12.30;;;;;;;15.59;55.14;98859.66;106570;1279;138109;-79
2022/04/27 10:12:16;;;;;;;21.40;12.70;;;;;;;15.50;54.84;98859.67;106110;1279;22576;-79
2022/04/27 10:14:42;;;;;;;17.30;12.00;;;;;;;15.38;54.75;98858.24;106344;1278;22580;-79
2022/04/27 10:17:13;;;;;;;14.80;11.70;;;;;;;15.24;54.17;98862.11;106331;1277;138191;-79
2022/04/27 10:19:50;;;;;;;15.60;11.70;;;;;;;15.02;54.93;98865.11;106186;1277;25724;-79
2022/04/27 10:22:31;;;;;;;15.90;11.20;;;;;;;14.77;55.42;98864.45;106272;1277;138191;-79
2022/04/27 10:25:09;;;;;;;15.70;10.60;;;;;;;14.54;54.47;98866.33;106941;1277;22545;-79
2022/04/27 10:27:40;;;;;;;13.90;10.10;;;;;;;14.32;55.13;98870.38;106385;1277;22576;-79
2022/04/27 10:30:08;;;;;;;19.50;11.10;;;;;;;14.15;55.55;98869.98;106484;1279;137861;-79
2022/04/27 10:32:44;;;;;;;14.90;10.70;;;;;;;14.00;55.81;98871.42;106423;1280;23413;-80
2022/04/27 10:35:18;;;;;;;18.20;12.70;;;;;;;13.84;56.54;98881.75;106244;1280;138066;-80
2022/04/27 10:37:45;;;;;;;15.30;11.00;;;;;;;13.68;56.89;98882.29;106512;1277;22610;-80
2022/04/27 10:40:26;;;;;;;13.00;10.40;;;;;;;13.56;57.49;98882.40;106578;1277;138401;-79
2022/04/27 10:42:52;;;;;;;17.70;11.30;;;;;;;13.43;57.85;98882.84;106528;1277;22557;-80
2022/04/27 10:45:23;;;;;;;13.30;10.10;;;;;;;13.36;58.67;98882.31;106576;1277;24463;-79
2022/04/27 10:47:50;;;;;;;14.50;10.50;;;;;;;13.32;58.19;98884.60;106829;1275;138151;-79
2022/04/27 10:50:19;;;;;;;13.90;10.30;;;;;;;13.30;58.41;98884.39;106613;1278;22544;-79
2022/04/27 10:52:55;;;;;;;15.20;9.90;;;;;;;13.34;58.82;98886.44;106582;1278;138416;-79
2022/04/27 10:55:35;;;;;;;13.00;8.80;;;;;;;13.41;57.72;98886.15;106839;1278;22727;-79
2022/04/27 10:58:24;;;;;;;12.10;8.70;;;;;;;13.42;57.46;98885.67;106416;1277;138343;-79
2022/04/27 11:01:03;;;;;;;12.80;8.40;;;;;;;13.50;57.37;98891.52;106335;1280;22598;-79
2022/04/27 11:04:22;;;;;;;13.10;9.50;;;;;;;13.58;57.47;98891.63;106470;1279;22696;-79
2022/04/27 11:07:58;;;;;;;16.10;8.90;;;;;;;13.63;57.36;98892.25;106431;1277;23406;-79
2022/04/27 11:10:47;;;;;;;12.20;9.20;;;;;;;13.66;57.15;98892.21;106339;1277;137947;-80
2022/04/27 11:13:13;;;;;;;15.50;10.00;;;;;;;13.67;57.67;98886.65;105893;1280;22569;-80
2022/04/27 11:15:39;;;;;;;14.10;9.00;;;;;;;13.76;57.42;98885.05;105972;1279;25397;-79
2022/04/27 11:18:06;;;;;;;12.00;9.10;;;;;;;13.82;56.48;98883.16;105803;1277;137750;-79
2022/04/27 11:20:35;;;;;;;13.80;9.30;;;;;;;13.89;57.02;98880.73;105869;1277;24233;-79
2022/04/27 11:23:25;;;;;;;11.60;8.50;;;;;;;14.03;57.23;98881.10;105505;1277;137928;-79
2022/04/27 11:26:07;;;;;;;10.50;8.20;;;;;;;14.22;57.23;98878.71;105813;1277;25272;-79
2022/04/27 11:28:37;;;;;;;11.00;8.80;;;;;;;14.36;55.74;98881.33;105813;1280;138171;-80
2022/04/27 11:31:08;;;;;;;8.80;7.10;;;;;;;14.49;55.44;98876.89;105917;1277;22554;-79
2022/04/27 11:33:40;;;;;;;11.10;8.40;;;;;;;14.63;55.45;98877.55;105758;1280;23445;-79
2022/04/27 11:36:07;;;;;;;10.50;8.40;;;;;;;14.74;55.30;98874.00;105854;1278;137733;-79
2022/04/27 11:38:37;;;;;;;12.30;8.50;;;;;;;14.80;55.71;98876.09;105845;1280;22750;-79
2022/04/27 11:41:14;;;;;;;10.60;8.40;;;;;;;14.79;54.67;98874.15;105946;1277;138388;-79
2022/04/27 11:43:55;;;;;;;11.70;8.20;;;;;;;14.74;54.54;98875.42;106200;1277;22569;-79
2022/04/27 11:46:22;;;;;;;9.90;7.20;;;;;;;14.71;54.54;98879.25;105862;1277;138245;-79
2022/04/27 11:48:53;;;;;;;8.70;6.70;;;;;;;14.69;54.84;98881.21;105933;1280;22819;-79
2022/04/27 11:51:38;;;;;;;9.20;6.90;;;;;;;14.64;54.06;98885.33;105805;1279;25253;-79
2022/04/27 11:54:04;;;;;;;10.00;7.90;;;;;;;14.57;54.28;98885.54;105896;1280;137614;-79